Latest Weather Observations for Kingfish B

IDV60801

Issued at 6:22 pm EST Sunday 22 July 2018 (issued every 10 minutes, with the page automatically refreshed every 10 minutes)

About weather observations | Map of weather stations | Latest weather observations for VIC | Other Formats
Station Details ID: 400139 Name: KINGFISH B (PLATFORM) Lat: -38.60 Lon: 148.19 Height: 31.4 m
Data from the previous 72 hours. | See also: Recent months for locations in Victoria
Date/Time
EST
Temp
°C
App
Temp
°C
Dew
Point
°C
Rel
Hum
%
Delta-T
°C
Wind Press
QNH
hPa
Press
MSL
hPa
Rain since
9am
mm
Dir  Spd
km/h
Gust
km/h
Spd
kts
Gust
kts
22/05:10pm 12.5 11.5 5.4 62 3.3 CALM 0 0 0 0 1019.4 - -
22/05:00pm 12.4 11.3 5.3 62 3.3 CALM 0 0 0 0 1019.4 - -
22/04:50pm 12.4 11.3 5.3 62 3.3 CALM 0 0 0 0 1019.4 - -
22/04:40pm 12.6 11.5 5.2 60 3.4 CALM 0 0 0 0 1019.4 - -
22/04:30pm 12.7 11.6 5.2 60 3.5 CALM 0 0 0 0 1019.5 - -
22/04:20pm 12.7 11.6 4.9 59 3.6 CALM 0 0 0 0 1019.5 - -
22/04:10pm 12.8 11.7 5.0 59 3.6 CALM 0 0 0 0 1019.5 - -
22/04:00pm 13.0 11.9 4.9 58 3.7 CALM 0 0 0 0 1019.5 - -
22/03:50pm 13.0 11.9 5.3 59 3.6 CALM 0 0 0 0 1019.4 - -
22/03:40pm 13.2 12.2 5.5 59 3.6 CALM 0 0 0 0 1019.4 - -
22/03:30pm 13.4 12.4 5.5 59 3.7 CALM 0 0 0 0 1019.5 - -
22/03:20pm 13.8 12.8 5.6 57 3.9 CALM 0 0 0 0 1019.5 - -
22/03:10pm 13.9 12.8 5.3 56 4.0 CALM 0 0 0 0 1019.5 - -
22/03:00pm 14.0 12.9 5.1 55 4.2 CALM 0 0 0 0 1019.7 - -
22/02:50pm 14.2 13.1 5.3 55 4.2 CALM 0 0 0 0 1019.7 - -
22/02:40pm 14.5 13.5 5.5 54 4.3 CALM 0 0 0 0 1019.8 - -
22/02:30pm 14.3 13.3 5.8 56 4.0 CALM 0 0 0 0 1019.9 - -
22/02:20pm 14.1 13.1 5.4 56 4.1 CALM 0 0 0 0 1019.9 - -
22/02:10pm 14.0 12.9 5.3 55 4.1 CALM 0 0 0 0 1020.0 - -
22/02:00pm 14.2 13.2 5.6 56 4.1 CALM 0 0 0 0 1020.0 - -
22/01:50pm 14.0 13.0 5.4 56 4.0 CALM 0 0 0 0 1020.0 - -
22/01:40pm 14.0 13.0 5.5 56 4.0 CALM 0 0 0 0 1019.9 - -
22/01:30pm 13.9 12.8 5.3 56 4.0 CALM 0 0 0 0 1019.9 - -
22/01:20pm 13.9 12.8 5.3 56 4.0 CALM 0 0 0 0 1019.9 - -
22/01:10pm 14.1 13.1 5.5 56 4.1 CALM 0 0 0 0 1020.0 - -
22/01:00pm 14.2 13.1 5.3 55 4.2 CALM 0 0 0 0 1020.1 - -
22/12:50pm 14.4 13.4 5.6 55 4.2 CALM 0 0 0 0 1020.2 - -
22/12:40pm 14.5 13.4 5.2 53 4.4 CALM 0 0 0 0 1020.3 - -
22/12:30pm 14.5 13.5 5.4 54 4.3 CALM 0 0 0 0 1020.4 - -
22/12:20pm 14.5 13.4 5.3 54 4.3 CALM 0 0 0 0 1020.5 - -
22/12:10pm 14.5 13.3 4.6 51 4.6 CALM 0 0 0 0 1020.6 - -
22/12:00pm 14.4 13.2 4.7 52 4.5 CALM 0 0 0 0 1020.7 - -
22/11:50am 14.5 13.3 4.7 52 4.6 CALM 0 0 0 0 1020.8 - -
22/11:40am 14.5 13.3 4.7 52 4.6 CALM 0 0 0 0 1020.9 - -
22/11:30am 14.7 13.5 4.6 50 4.7 CALM 0 0 0 0 1021.1 - -
22/11:20am 14.5 13.4 4.9 52 4.5 CALM 0 0 0 0 1021.2 - -
22/11:10am 14.4 13.3 5.3 54 4.3 CALM 0 0 0 0 1021.4 - -
22/11:00am 14.5 13.5 5.4 54 4.3 CALM 0 0 0 0 1021.5 - -
22/10:50am 14.6 13.5 5.2 53 4.4 CALM 0 0 0 0 1021.6 - -
22/10:40am 14.5 13.4 5.1 53 4.4 CALM 0 0 0 0 1021.9 - -
22/10:30am 14.5 13.4 5.1 53 4.4 CALM 0 0 0 0 1022.0 - -
22/10:20am 14.5 13.4 5.1 53 4.4 CALM 0 0 0 0 1022.1 - -
22/10:10am 14.4 13.3 5.3 54 4.3 CALM 0 0 0 0 1022.2 - -
22/10:00am 14.1 13.0 5.1 54 4.2 CALM 0 0 0 0 1022.4 - -
22/09:50am 14.0 12.9 5.2 55 4.1 CALM 0 0 0 0 1022.4 - -
22/09:40am 14.1 12.9 4.8 53 4.3 CALM 0 0 0 0 1022.5 - -
22/09:30am 14.0 12.8 4.8 54 4.3 CALM 0 0 0 0 1022.5 - -
22/09:20am 14.1 13.0 5.1 54 4.2 CALM 0 0 0 0 1022.6 - -
22/09:10am 14.1 12.9 4.8 53 4.3 CALM 0 0 0 0 1022.6 - -
22/09:00am 13.9 12.7 4.8 54 4.2 CALM 0 0 0 0 1022.7 - -
22/08:50am 13.8 12.7 5.0 55 4.1 CALM 0 0 0 0 1022.7 - -
22/08:40am 13.6 12.5 5.0 56 4.0 CALM 0 0 0 0 1022.7 - -
22/08:30am 13.5 12.3 4.7 55 4.1 CALM 0 0 0 0 1022.7 - -
22/08:20am 13.3 12.1 4.4 55 4.1 CALM 0 0 0 0 1022.7 - -
22/08:10am 13.4 12.2 4.6 55 4.1 CALM 0 0 0 0 1022.8 - -
22/08:00am 13.6 12.5 4.9 55 4.0 CALM 0 0 0 0 1022.8 - -
22/07:50am 13.2 12.1 4.9 57 3.8 CALM 0 0 0 0 1022.8 - -
22/07:40am 12.8 11.7 4.9 58 3.6 CALM 0 0 0 0 1022.8 - -
22/07:30am 12.9 11.8 4.9 58 3.7 CALM 0 0 0 0 1022.8 - -
22/07:20am 12.8 11.7 5.0 59 3.6 CALM 0 0 0 0 1022.8 - -
22/07:10am 12.6 11.5 4.9 59 3.5 CALM 0 0 0 0 1022.8 - -
22/07:00am 12.4 11.4 5.4 62 3.3 CALM 0 0 0 0 1022.8 - -
22/06:50am 12.5 11.5 5.4 62 3.3 CALM 0 0 0 0 1022.7 - -
22/06:40am 12.7 11.6 5.2 60 3.5 CALM 0 0 0 0 1022.7 - -
22/06:30am 13.0 11.8 4.7 57 3.8 CALM 0 0 0 0 1022.7 - -
22/06:20am 13.2 12.0 4.5 55 4.0 CALM 0 0 0 0 1022.6 - -
22/06:10am 13.3 12.0 4.1 53 4.2 CALM 0 0 0 0 1022.6 - -
22/06:00am 13.3 12.0 4.0 53 4.2 CALM 0 0 0 0 1022.6 - -
22/05:50am 13.4 12.1 4.0 53 4.3 CALM 0 0 0 0 1022.6 - -
22/05:40am 13.3 12.0 4.3 54 4.1 CALM 0 0 0 0 1022.6 - -
22/05:30am 13.4 12.2 4.4 54 4.1 CALM 0 0 0 0 1022.6 - -
22/05:20am 13.2 12.0 4.8 56 3.9 CALM 0 0 0 0 1022.5 - -
 
Date/Time
EST
Temp
°C
App
Temp
°C
Dew
Point
°C
Rel
Hum
%
Delta-T
°C
Wind Press
QNH
hPa
Press
MSL
hPa
Rain since
9am
mm
Dir  Spd
km/h
Gust
km/h
Spd
kts
Gust
kts
21/08:00pm 12.4 11.5 6.0 65 3.0 CALM 0 0 0 0 1022.0 - -
21/07:40pm 12.7 11.8 6.1 64 3.1 CALM 0 0 0 0 1021.9 - -
21/06:40pm 12.4 11.5 6.2 66 2.9 CALM 0 0 0 0 1021.6 - -
21/06:30pm 12.4 11.5 6.0 65 3.0 CALM 0 0 0 0 1021.6 - -
21/06:20pm 12.4 11.5 6.0 65 3.0 CALM 0 0 0 0 1021.6 - -
21/06:10pm 12.2 11.3 6.1 66 2.9 CALM 0 0 0 0 1021.6 - -
21/06:00pm 12.2 11.3 6.2 67 2.8 CALM 0 0 0 0 1021.5 - -
21/05:50pm 12.4 11.6 6.5 67 2.8 CALM 0 0 0 0 1021.4 - -
21/05:40pm 12.5 11.7 6.5 67 2.9 CALM 0 0 0 0 1021.3 - -
21/05:30pm 12.4 11.6 6.6 68 2.8 CALM 0 0 0 0 1021.2 - -
21/05:20pm 12.4 11.6 6.6 68 2.8 CALM 0 11 0 6 1021.2 - -
21/05:10pm 12.4 11.6 6.5 67 2.8 CALM 0 0 0 0 1021.1 - -
21/05:00pm 12.4 11.6 6.4 67 2.9 CALM 0 0 0 0 1021.1 - -
21/04:50pm 12.3 11.4 6.0 65 3.0 CALM 0 0 0 0 1021.1 - -
21/04:40pm 12.3 11.4 6.0 65 3.0 CALM 0 0 0 0 1021.0 - -
21/04:30pm 12.5 11.7 6.6 67 2.8 CALM 0 0 0 0 1020.6 - -
21/04:20pm 12.6 11.8 6.6 67 2.9 CALM 0 0 0 0 1020.5 - -
21/04:10pm 12.9 12.3 7.2 68 2.8 CALM 0 0 0 0 1020.4 - -
21/04:00pm 12.8 12.2 7.3 69 2.7 CALM 0 0 0 0 1020.5 - -
21/03:50pm 12.9 12.3 7.2 68 2.8 CALM 0 0 0 0 1020.4 - -
21/03:40pm 12.9 12.2 7.1 68 2.8 CALM 0 0 0 0 1020.4 - -
21/03:30pm 12.8 12.1 7.0 68 2.8 CALM 0 0 0 0 1020.3 - -
21/03:20pm 12.9 12.2 7.0 67 2.8 CALM 0 0 0 0 1020.3 - -
21/03:10pm 12.8 12.1 6.9 67 2.8 CALM 0 0 0 0 1020.2 - -
21/03:00pm 12.8 12.1 6.8 67 2.9 CALM 0 0 0 0 1020.1 - -
21/02:50pm 12.7 11.9 6.7 67 2.9 CALM 0 0 0 0 1020.0 - -
21/02:40pm 12.9 12.3 7.3 69 2.7 CALM 0 0 0 0 1019.8 - -
21/02:30pm 12.9 12.3 7.3 69 2.7 CALM 0 0 0 0 1019.8 - -
21/02:20pm 12.9 12.2 6.9 67 2.9 CALM 0 0 0 0 1019.6 - -
21/02:10pm 12.8 12.1 6.8 67 2.9 CALM 0 0 0 0 1019.5 - -
21/02:00pm 12.7 12.0 6.8 67 2.8 CALM 0 0 0 0 1019.4 - -
21/01:50pm 12.7 12.0 6.9 68 2.8 CALM 0 0 0 0 1019.4 - -
21/01:40pm 12.8 12.0 6.7 66 2.9 CALM 0 0 0 0 1019.3 - -
21/01:30pm 12.8 12.1 6.9 67 2.8 CALM 0 0 0 0 1019.2 - -
21/01:20pm 12.7 12.0 6.9 68 2.8 CALM 0 0 0 0 1019.2 - -
21/01:10pm 12.7 11.9 6.7 67 2.9 CALM 0 0 0 0 1019.0 - -
21/01:00pm 12.6 11.9 6.8 68 2.8 CALM 0 0 0 0 1018.9 - -
21/12:50pm 12.7 12.0 6.9 68 2.8 CALM 0 0 0 0 1018.8 - -
21/12:40pm 12.7 12.0 7.0 68 2.7 CALM 0 0 0 0 1018.8 - -
21/12:30pm 12.7 12.0 7.1 69 2.7 CALM 0 0 0 0 1018.7 - -
21/12:20pm 12.9 12.3 7.3 69 2.7 CALM 0 0 0 0 1018.7 - -
21/12:10pm 12.9 12.3 7.3 69 2.7 CALM 0 0 0 0 1018.7 - -
21/12:00pm 13.0 12.4 7.4 69 2.7 CALM 0 0 0 0 1018.6 - -
21/11:50am 12.8 12.2 7.4 69 2.6 CALM 0 0 0 0 1018.8 - -
21/11:40am 12.7 12.1 7.5 70 2.5 CALM 0 0 0 0 1018.9 - -
21/11:30am 12.9 12.3 7.4 69 2.7 CALM 0 0 0 0 1018.9 - -
21/11:20am 12.9 12.3 7.5 69 2.6 CALM 0 0 0 0 1018.9 - -
21/11:10am 12.9 12.3 7.5 69 2.6 CALM 0 0 0 0 1019.1 - -
21/11:00am 13.0 12.4 7.6 70 2.6 CALM 0 0 0 0 1019.1 - -
21/10:50am 13.0 12.5 7.8 70 2.6 CALM 0 0 0 0 1019.1 - -
21/10:40am 12.8 12.2 7.5 70 2.6 CALM 0 0 0 0 1019.3 - -
21/10:30am 13.0 12.5 7.7 70 2.6 CALM 0 0 0 0 1019.3 - -
21/10:20am 13.0 12.4 7.6 70 2.6 CALM 0 0 0 0 1019.5 - -
21/10:10am 12.8 12.2 7.5 70 2.6 CALM 0 0 0 0 1019.6 - -
21/10:00am 12.8 12.2 7.6 70 2.5 CALM 0 0 0 0 1019.6 - -
21/09:50am 12.9 12.4 7.8 71 2.5 CALM 0 0 0 0 1019.5 - -
21/09:40am 13.1 12.6 7.9 70 2.6 CALM 0 0 0 0 1019.5 - -
21/09:30am 13.1 12.6 7.8 70 2.6 CALM 0 0 0 0 1019.6 - -
21/09:20am 13.1 12.6 7.7 70 2.7 CALM 0 0 0 0 1019.5 - -
21/09:10am 13.2 12.7 7.8 70 2.7 CALM 0 0 0 0 1019.3 - -
21/09:00am 13.1 12.6 7.8 70 2.6 CALM 0 0 0 0 1019.1 - -
21/08:50am 12.8 12.3 7.8 71 2.5 CALM 0 0 0 0 1018.9 - -
21/08:40am 12.6 12.1 7.7 72 2.4 CALM 0 0 0 0 1018.8 - -
21/07:50am 12.4 11.9 7.8 73 2.3 CALM 0 0 0 0 1018.2 - -
21/07:40am 12.2 11.6 7.6 73 2.2 CALM 0 0 0 0 1018.0 - -
21/07:30am 12.2 11.7 7.8 74 2.2 CALM 0 0 0 0 1017.7 - -
21/07:20am 12.1 11.6 7.8 75 2.1 CALM 0 0 0 0 1017.5 - -
21/07:10am 12.2 11.7 7.9 75 2.1 CALM 0 0 0 0 1017.4 - -
21/07:00am 12.0 11.5 7.9 76 2.0 CALM 0 0 0 0 1017.2 - -
 
Date/Time
EST
Temp
°C
App
Temp
°C
Dew
Point
°C
Rel
Hum
%
Delta-T
°C
Wind Press
QNH
hPa
Press
MSL
hPa
Rain since
9am
mm
Dir  Spd
km/h
Gust
km/h
Spd
kts
Gust
kts
20/05:40pm 10.7 9.6 5.3 69 2.5 CALM 0 0 0 0 1006.6 - -
20/05:30pm 10.8 9.8 5.5 70 2.4 CALM 0 9 0 5 1006.2 - -
20/04:10pm 10.6 9.4 4.7 67 2.7 CALM 0 0 0 0 1004.9 - -
20/01:40pm 12.4 11.1 3.9 56 3.8 CALM 0 0 0 0 1003.6 - -
20/01:30pm 12.4 11.1 4.1 57 3.7 CALM 0 0 0 0 1003.7 - -
20/01:20pm 12.3 11.0 4.1 57 3.7 CALM 0 0 0 0 1003.6 - -
20/01:10pm 12.3 11.0 3.9 56 3.8 CALM 0 0 0 0 1003.5 - -
20/01:00pm 12.6 11.3 4.1 56 3.8 CALM 0 0 0 0 1003.5 - -
20/12:50pm 12.3 11.0 4.2 57 3.7 CALM 0 0 0 0 1003.4 - -
20/12:40pm 12.0 10.7 4.0 58 3.6 CALM 0 0 0 0 1003.3 - -
20/12:30pm 11.9 10.6 4.3 59 3.4 CALM 0 0 0 0 1003.5 - -
20/12:20pm 12.0 10.8 4.7 61 3.3 CALM 0 0 0 0 1003.5 - -
20/12:10pm 11.9 10.7 4.8 62 3.2 CALM 0 0 0 0 1003.5 - -
20/12:00pm 11.8 10.6 4.6 61 3.3 CALM 0 0 0 0 1003.6 - -
20/11:50am 11.7 10.5 4.7 62 3.2 CALM 0 0 0 0 1003.6 - -
20/11:40am 11.9 10.7 4.6 61 3.3 CALM 0 0 0 0 1003.6 - -
20/11:30am 11.9 10.7 4.6 61 3.3 CALM 0 0 0 0 1003.7 - -
20/11:20am 12.0 10.8 4.4 59 3.4 CALM 0 0 0 0 1003.8 - -
20/11:10am 11.9 10.7 4.4 60 3.4 CALM 0 0 0 0 1003.9 - -
20/11:00am 11.9 10.6 4.2 59 3.5 CALM 0 0 0 0 1003.9 - -
20/10:50am 11.9 10.7 4.7 61 3.3 CALM 0 0 0 0 1004.2 - -
20/10:40am 11.7 10.5 4.7 62 3.2 CALM 0 0 0 0 1004.4 - -
20/10:20am 11.6 10.4 4.5 61 3.2 CALM 0 0 0 0 1004.7 - -
20/04:10am 11.2 10.2 5.4 67 2.7 CALM 0 0 0 0 1002.7 - -
20/04:00am 11.3 10.3 5.6 68 2.6 CALM 0 0 0 0 1002.6 - -
20/03:50am 11.4 10.4 5.8 68 2.6 CALM 0 0 0 0 1002.8 - -
20/03:40am 11.6 10.7 6.0 68 2.6 CALM 0 0 0 0 1003.1 - -
20/03:30am 11.7 10.9 6.3 69 2.5 CALM 0 0 0 0 1003.3 - -
20/03:20am 11.7 10.9 6.5 70 2.5 CALM 0 0 0 0 1003.4 - -
20/02:50am 12.0 11.2 6.7 70 2.5 CALM 0 0 0 0 1003.1 - -
20/02:40am 11.9 11.1 6.5 69 2.6 CALM 0 0 0 0 1003.4 - -

Other Formats:

Comma delimited format used in spreadsheet applications
http://www.bom.gov.au/fwo/IDV60801/IDV60801.55039.axf

JavaScript Object Notation format (JSON) in row-major order
http://www.bom.gov.au/fwo/IDV60801/IDV60801.55039.json